Ningbo Seal — VRJD3 — position and weather

sailwx.info

Track history (hours):
 
Tides and Currents Weather Stations Pressure Air Temp Water Temp Dewpoint Dewpoint Depression Visibility Wind Speed Wind Dir Waves Ship Positions

Ningbo Seal

Last reported at 2016-Aug-16 11:15 UTC. Time now 2016-Aug-30 07:27 UTC.
Position N 22°29' E 119°55'.
Warning: this ship's position is 13 days out of date.

Length 224 m; draft 7.5 m.

Type: Cargo ship. MMSI: 477628100.

Date/timePositionNaut miles runAvg speedWind from/ knotsBaromVisibWave heightAir tempDewpointWater temp
2016-Aug-16 11:15N 22°29' E 119°55'7 9.2
2016-Aug-16 10:33N 22°36' E 119°55'10 9.9
2016-Aug-16 09:33N 22°46' E 119°55'  
2016-Aug-13 07:21N 36°41' E 122°58'1012.6
2016-Aug-13 06:34N 36°51' E 122°58'1212.1
2016-Aug-13 05:33N 37°03' E 122°57'1211.9
2016-Aug-13 04:33N 37°15' E 122°57'2611.1
2016-Aug-13 02:14N 37°39' E 122°49'1313.0
2016-Aug-13 01:14N 37°47' E 122°35'3813.3
2016-Aug-12 22:22N 38°05' E 121°53'1113.6
2016-Aug-12 21:33N 38°11' E 121°41'1413.5
2016-Aug-12 20:33N 38°18' E 121°26'1413.7
2016-Aug-12 19:33N 38°25' E 121°11'1111.4
2016-Aug-12 18:34N 38°31' E 120°59'1010.0
2016-Aug-12 17:33N 38°36' E 120°48'1312.1
2016-Aug-12 16:30N 38°44' E 120°35'5513.3
2016-Aug-12 12:20N 39°34' E 120°05'810.4
2016-Aug-12 11:33N 39°41' E 120°01'0 0.0
2016-Aug-12 10:31N 39°41' E 120°01'0 0.2
2016-Aug-12 09:31N 39°41' E 120°01'0 0.0
2016-Aug-12 08:13N 39°41' E 120°01'0 0.0
2016-Aug-12 07:31N 39°41' E 120°01'0 0.0
2016-Aug-12 06:31N 39°41' E 120°01'0 0.1
2016-Aug-12 05:31N 39°41' E 120°01'0 0.2
2016-Aug-12 04:31N 39°41' E 120°01'0 0.0
2016-Aug-12 03:31N 39°41' E 120°01'0 0.0
2016-Aug-12 02:31N 39°41' E 120°01'0 0.0
2016-Aug-12 01:25N 39°41' E 120°01'0 0.0
2016-Aug-12 00:31N 39°41' E 120°01'0 0.0
2016-Aug-11 23:31N 39°41' E 120°01'0 0.0
2016-Aug-11 21:25N 39°41' E 120°01'0 0.0
2016-Aug-11 20:31N 39°41' E 120°01'0 0.0
2016-Aug-11 19:31N 39°41' E 120°01'0 0.0
2016-Aug-11 18:31N 39°41' E 120°01'0 0.0
2016-Aug-11 17:31N 39°41' E 120°01'0 0.0
2016-Aug-11 16:31N 39°41' E 120°01'0 0.0
2016-Aug-11 15:31N 39°41' E 120°01'0 0.0
2016-Aug-11 14:19N 39°41' E 120°01'0 0.0
2016-Aug-11 13:25N 39°41' E 120°01'0 0.0
2016-Aug-11 12:31N 39°41' E 120°01'0 0.0
2016-Aug-11 11:31N 39°41' E 120°01'0 0.0
2016-Aug-11 10:31N 39°41' E 120°01'0 0.0
2016-Aug-11 09:31N 39°41' E 120°01'0 0.0
2016-Aug-11 08:31N 39°41' E 120°01'2 2.2
2016-Aug-11 07:33N 39°42' E 119°58'1312.8
2016-Aug-11 06:33N 39°53' E 119°52'6 5.7
2016-Aug-11 05:33N 39°59' E 119°50'0 0.4
2016-Aug-11 04:23N 39°59' E 119°50'0 0.0
2016-Aug-11 03:29N 39°59' E 119°50'0 0.0
2016-Aug-11 02:29N 39°59' E 119°50'0 0.0
2016-Aug-11 01:29N 39°59' E 119°50'0 0.0
2016-Aug-10 23:05N 39°59' E 119°50'0 0.0
2016-Aug-10 22:29N 39°59' E 119°50'0 0.0
2016-Aug-10 21:29N 39°59' E 119°50'0 0.0
2016-Aug-10 20:29N 39°59' E 119°50'0 0.0
2016-Aug-10 19:29N 39°59' E 119°50'0 0.0
2016-Aug-10 18:29N 39°59' E 119°50'0 0.0
2016-Aug-10 17:29N 39°59' E 119°50'0 0.0
2016-Aug-10 16:29N 39°59' E 119°50'0 0.0
2016-Aug-10 15:29N 39°59' E 119°50'0 0.0
2016-Aug-10 14:17N 39°59' E 119°50'0 0.0
2016-Aug-10 13:29N 39°59' E 119°50'0 0.0
2016-Aug-10 12:29N 39°59' E 119°50'0 0.0
2016-Aug-10 11:29N 39°59' E 119°50'0 0.0
2016-Aug-10 10:29N 39°59' E 119°50'0 0.0
2016-Aug-10 09:23N 39°59' E 119°50'0 0.0
2016-Aug-10 08:29N 39°59' E 119°50'0 0.0
2016-Aug-10 07:29N 39°59' E 119°50'0 0.0
2016-Aug-10 06:29N 39°59' E 119°50'0 0.0
2016-Aug-10 05:29N 39°59' E 119°50'0 0.0
2016-Aug-10 04:29N 39°59' E 119°50'0 0.0
2016-Aug-10 03:29N 39°59' E 119°50'0 0.0
2016-Aug-10 02:23N 39°59' E 119°50'0 0.0
2016-Aug-10 01:26N 39°59' E 119°50'0 0.0
2016-Aug-10 00:32N 39°59' E 119°50'0 0.0
2016-Aug-09 23:32N 39°59' E 119°50'0 0.0
2016-Aug-09 22:26N 39°59' E 119°50'0 0.0
2016-Aug-09 21:26N 39°59' E 119°50'0 0.0
2016-Aug-09 20:32N 39°59' E 119°50'0 0.0
2016-Aug-09 19:32N 39°59' E 119°50'0 0.0
2016-Aug-09 18:32N 39°59' E 119°50'0 0.0
2016-Aug-09 17:32N 39°59' E 119°50'0 0.0
2016-Aug-09 16:32N 39°59' E 119°50'0 0.0
2016-Aug-09 15:20N 39°59' E 119°50'0 0.0
2016-Aug-09 14:32N 39°59' E 119°50'0 0.0
2016-Aug-09 13:26N 39°59' E 119°50'0 0.0
2016-Aug-09 12:32N 39°59' E 119°50'0 0.0
2016-Aug-09 11:32N 39°59' E 119°50'0 0.0
2016-Aug-09 10:20N 39°59' E 119°50'0 0.0
2016-Aug-09 09:32N 39°59' E 119°50'0 0.0
2016-Aug-09 08:32N 39°59' E 119°50'0 0.0
2016-Aug-09 07:32N 39°59' E 119°50'0 0.0
2016-Aug-09 04:32N 39°59' E 119°50'0 0.0
2016-Aug-09 03:26N 39°59' E 119°50'0 0.0
2016-Aug-09 02:32N 39°59' E 119°50'0 0.0
2016-Aug-09 01:32N 39°59' E 119°50'0 0.0
2016-Aug-09 00:32N 39°59' E 119°50'0 0.0
2016-Aug-08 17:14N 39°59' E 119°50'0 0.0
2016-Aug-08 15:32N 39°59' E 119°50'0 0.0
2016-Aug-08 14:32N 39°59' E 119°50'0 0.0
2016-Aug-08 13:14N 39°59' E 119°50'0 0.0
2016-Aug-08 12:32N 39°59' E 119°50'0 0.0
2016-Aug-08 10:32N 39°59' E 119°50'0 0.0
2016-Aug-08 09:32N 39°59' E 119°50'0 0.0
2016-Aug-08 08:32N 39°59' E 119°50'0 0.0
2016-Aug-08 07:20N 39°59' E 119°50'0 0.0
2016-Aug-08 06:32N 39°59' E 119°50'0 0.0
2016-Aug-08 05:32N 39°59' E 119°50'0 0.0
2016-Aug-08 04:32N 39°59' E 119°50'0 0.0
2016-Aug-08 03:32N 39°59' E 119°50'0 0.0
2016-Aug-08 02:26N 39°59' E 119°50'0 0.0
2016-Aug-08 01:32N 39°59' E 119°50'0 0.0
2016-Aug-08 00:32N 39°59' E 119°50'0 0.0
2016-Aug-07 23:32N 39°59' E 119°50'0 0.0
2016-Aug-07 22:32N 39°59' E 119°50'0 0.0
2016-Aug-07 21:32N 39°59' E 119°50'0 0.0
2016-Aug-07 20:32N 39°59' E 119°50'0 0.0
2016-Aug-07 19:32N 39°59' E 119°50'0 0.0
2016-Aug-07 18:32N 39°59' E 119°50'0 0.0
2016-Aug-07 17:32N 39°59' E 119°50'0 0.0
2016-Aug-07 16:32N 39°59' E 119°50'0 0.0
2016-Aug-07 15:32N 39°59' E 119°50'0 0.0
2016-Aug-07 14:32N 39°59' E 119°50'0 0.0
2016-Aug-07 13:32N 39°59' E 119°50'0 0.0
2016-Aug-07 12:32N 39°59' E 119°50'0 0.0
2016-Aug-07 11:32N 39°59' E 119°50'0 0.0
2016-Aug-07 10:32N 39°59' E 119°50'0 0.0
2016-Aug-07 09:32N 39°59' E 119°50'0 0.0
2016-Aug-07 06:04N 39°59' E 119°50'3 1.9
2016-Aug-07 04:33N 39°56' E 119°49'2 2.2
2016-Aug-07 03:29N 39°55' E 119°51'0 0.0
2016-Aug-07 02:29N 39°55' E 119°51'0 0.0
2016-Aug-07 01:29N 39°55' E 119°51'0 0.0
2016-Aug-07 00:29N 39°55' E 119°51'0 0.0
2016-Aug-06 23:29N 39°55' E 119°51'0 0.0
2016-Aug-06 22:29N 39°55' E 119°51'0 0.0
2016-Aug-06 21:29N 39°55' E 119°51'0 0.0
2016-Aug-06 20:33N 39°55' E 119°51'0 0.2
2016-Aug-06 19:33N 39°55' E 119°51'0 0.1
2016-Aug-06 18:33N 39°55' E 119°51'0 0.0
2016-Aug-06 17:33N 39°55' E 119°51'0 0.2
2016-Aug-06 16:33N 39°55' E 119°51'0 0.1
2016-Aug-06 15:33N 39°55' E 119°51'0 0.0
2016-Aug-06 14:33N 39°55' E 119°51'0 0.1
2016-Aug-06 13:33N 39°55' E 119°51'4 3.6
2016-Aug-06 12:33N 39°51' E 119°53'1412.8
2016-Aug-06 11:30N 39°38' E 119°56'  
Track history (hours):
 
Tides and Currents Weather Stations Pressure Air Temp Water Temp Dewpoint Dewpoint Depression Visibility Wind Speed Wind Dir Waves Ship Positions

Ningbo Seal

Last reported at 2016-Aug-16 11:15 UTC. Time now 2016-Aug-30 07:27 UTC.
Position N 22°29' E 119°55'.
Warning: this ship's position is 13 days out of date.

Length 224 m; draft 7.5 m.

Type: Cargo ship. MMSI: 477628100.

Date/timePositionNaut miles runAvg speedWind from/ knotsBaromVisibWave heightAir tempDewpointWater temp
2016-Aug-16 11:15N 22°29' E 119°55'7 9.2
2016-Aug-16 10:33N 22°36' E 119°55'10 9.9
2016-Aug-16 09:33N 22°46' E 119°55'  
2016-Aug-13 07:21N 36°41' E 122°58'1012.6
2016-Aug-13 06:34N 36°51' E 122°58'1212.1
2016-Aug-13 05:33N 37°03' E 122°57'1211.9
2016-Aug-13 04:33N 37°15' E 122°57'2611.1
2016-Aug-13 02:14N 37°39' E 122°49'1313.0
2016-Aug-13 01:14N 37°47' E 122°35'3813.3
2016-Aug-12 22:22N 38°05' E 121°53'1113.6
2016-Aug-12 21:33N 38°11' E 121°41'1413.5
2016-Aug-12 20:33N 38°18' E 121°26'1413.7
2016-Aug-12 19:33N 38°25' E 121°11'1111.4
2016-Aug-12 18:34N 38°31' E 120°59'1010.0
2016-Aug-12 17:33N 38°36' E 120°48'1312.1
2016-Aug-12 16:30N 38°44' E 120°35'5513.3
2016-Aug-12 12:20N 39°34' E 120°05'810.4
2016-Aug-12 11:33N 39°41' E 120°01'0 0.0
2016-Aug-12 10:31N 39°41' E 120°01'0 0.2
2016-Aug-12 09:31N 39°41' E 120°01'0 0.0
2016-Aug-12 08:13N 39°41' E 120°01'0 0.0
2016-Aug-12 07:31N 39°41' E 120°01'0 0.0
2016-Aug-12 06:31N 39°41' E 120°01'0 0.1
2016-Aug-12 05:31N 39°41' E 120°01'0 0.2
2016-Aug-12 04:31N 39°41' E 120°01'0 0.0
2016-Aug-12 03:31N 39°41' E 120°01'0 0.0
2016-Aug-12 02:31N 39°41' E 120°01'0 0.0
2016-Aug-12 01:25N 39°41' E 120°01'0 0.0
2016-Aug-12 00:31N 39°41' E 120°01'0 0.0
2016-Aug-11 23:31N 39°41' E 120°01'0 0.0
2016-Aug-11 21:25N 39°41' E 120°01'0 0.0
2016-Aug-11 20:31N 39°41' E 120°01'0 0.0
2016-Aug-11 19:31N 39°41' E 120°01'0 0.0
2016-Aug-11 18:31N 39°41' E 120°01'0 0.0
2016-Aug-11 17:31N 39°41' E 120°01'0 0.0
2016-Aug-11 16:31N 39°41' E 120°01'0 0.0
2016-Aug-11 15:31N 39°41' E 120°01'0 0.0
2016-Aug-11 14:19N 39°41' E 120°01'0 0.0
2016-Aug-11 13:25N 39°41' E 120°01'0 0.0
2016-Aug-11 12:31N 39°41' E 120°01'0 0.0
2016-Aug-11 11:31N 39°41' E 120°01'0 0.0
2016-Aug-11 10:31N 39°41' E 120°01'0 0.0
2016-Aug-11 09:31N 39°41' E 120°01'0 0.0
2016-Aug-11 08:31N 39°41' E 120°01'2 2.2
2016-Aug-11 07:33N 39°42' E 119°58'1312.8
2016-Aug-11 06:33N 39°53' E 119°52'6 5.7
2016-Aug-11 05:33N 39°59' E 119°50'0 0.4
2016-Aug-11 04:23N 39°59' E 119°50'0 0.0
2016-Aug-11 03:29N 39°59' E 119°50'0 0.0
2016-Aug-11 02:29N 39°59' E 119°50'0 0.0
2016-Aug-11 01:29N 39°59' E 119°50'0 0.0
2016-Aug-10 23:05N 39°59' E 119°50'0 0.0
2016-Aug-10 22:29N 39°59' E 119°50'0 0.0
2016-Aug-10 21:29N 39°59' E 119°50'0 0.0
2016-Aug-10 20:29N 39°59' E 119°50'0 0.0
2016-Aug-10 19:29N 39°59' E 119°50'0 0.0
2016-Aug-10 18:29N 39°59' E 119°50'0 0.0
2016-Aug-10 17:29N 39°59' E 119°50'0 0.0
2016-Aug-10 16:29N 39°59' E 119°50'0 0.0
2016-Aug-10 15:29N 39°59' E 119°50'0 0.0
2016-Aug-10 14:17N 39°59' E 119°50'0 0.0
2016-Aug-10 13:29N 39°59' E 119°50'0 0.0
2016-Aug-10 12:29N 39°59' E 119°50'0 0.0
2016-Aug-10 11:29N 39°59' E 119°50'0 0.0
2016-Aug-10 10:29N 39°59' E 119°50'0 0.0
2016-Aug-10 09:23N 39°59' E 119°50'0 0.0
2016-Aug-10 08:29N 39°59' E 119°50'0 0.0
2016-Aug-10 07:29N 39°59' E 119°50'0 0.0
2016-Aug-10 06:29N 39°59' E 119°50'0 0.0
2016-Aug-10 05:29N 39°59' E 119°50'0 0.0
2016-Aug-10 04:29N 39°59' E 119°50'0 0.0
2016-Aug-10 03:29N 39°59' E 119°50'0 0.0
2016-Aug-10 02:23N 39°59' E 119°50'0 0.0
2016-Aug-10 01:26N 39°59' E 119°50'0 0.0
2016-Aug-10 00:32N 39°59' E 119°50'0 0.0
2016-Aug-09 23:32N 39°59' E 119°50'0 0.0
2016-Aug-09 22:26N 39°59' E 119°50'0 0.0
2016-Aug-09 21:26N 39°59' E 119°50'0 0.0
2016-Aug-09 20:32N 39°59' E 119°50'0 0.0
2016-Aug-09 19:32N 39°59' E 119°50'0 0.0
2016-Aug-09 18:32N 39°59' E 119°50'0 0.0
2016-Aug-09 17:32N 39°59' E 119°50'0 0.0
2016-Aug-09 16:32N 39°59' E 119°50'0 0.0
2016-Aug-09 15:20N 39°59' E 119°50'0 0.0
2016-Aug-09 14:32N 39°59' E 119°50'0 0.0
2016-Aug-09 13:26N 39°59' E 119°50'0 0.0
2016-Aug-09 12:32N 39°59' E 119°50'0 0.0
2016-Aug-09 11:32N 39°59' E 119°50'0 0.0
2016-Aug-09 10:20N 39°59' E 119°50'0 0.0
2016-Aug-09 09:32N 39°59' E 119°50'0 0.0
2016-Aug-09 08:32N 39°59' E 119°50'0 0.0
2016-Aug-09 07:32N 39°59' E 119°50'0 0.0
2016-Aug-09 04:32N 39°59' E 119°50'0 0.0
2016-Aug-09 03:26N 39°59' E 119°50'0 0.0
2016-Aug-09 02:32N 39°59' E 119°50'0 0.0
2016-Aug-09 01:32N 39°59' E 119°50'0 0.0
2016-Aug-09 00:32N 39°59' E 119°50'0 0.0
2016-Aug-08 17:14N 39°59' E 119°50'0 0.0
2016-Aug-08 15:32N 39°59' E 119°50'0 0.0
2016-Aug-08 14:32N 39°59' E 119°50'0 0.0
2016-Aug-08 13:14N 39°59' E 119°50'0 0.0
2016-Aug-08 12:32N 39°59' E 119°50'0 0.0
2016-Aug-08 10:32N 39°59' E 119°50'0 0.0
2016-Aug-08 09:32N 39°59' E 119°50'0 0.0
2016-Aug-08 08:32N 39°59' E 119°50'0 0.0
2016-Aug-08 07:20N 39°59' E 119°50'0 0.0
2016-Aug-08 06:32N 39°59' E 119°50'0 0.0
2016-Aug-08 05:32N 39°59' E 119°50'0 0.0
2016-Aug-08 04:32N 39°59' E 119°50'0 0.0
2016-Aug-08 03:32N 39°59' E 119°50'0 0.0
2016-Aug-08 02:26N 39°59' E 119°50'0 0.0
2016-Aug-08 01:32N 39°59' E 119°50'0 0.0
2016-Aug-08 00:32N 39°59' E 119°50'0 0.0
2016-Aug-07 23:32N 39°59' E 119°50'0 0.0
2016-Aug-07 22:32N 39°59' E 119°50'0 0.0
2016-Aug-07 21:32N 39°59' E 119°50'0 0.0
2016-Aug-07 20:32N 39°59' E 119°50'0 0.0
2016-Aug-07 19:32N 39°59' E 119°50'0 0.0
2016-Aug-07 18:32N 39°59' E 119°50'0 0.0
2016-Aug-07 17:32N 39°59' E 119°50'0 0.0
2016-Aug-07 16:32N 39°59' E 119°50'0 0.0
2016-Aug-07 15:32N 39°59' E 119°50'0 0.0
2016-Aug-07 14:32N 39°59' E 119°50'0 0.0
2016-Aug-07 13:32N 39°59' E 119°50'0 0.0
2016-Aug-07 12:32N 39°59' E 119°50'0 0.0
2016-Aug-07 11:32N 39°59' E 119°50'0 0.0
2016-Aug-07 10:32N 39°59' E 119°50'0 0.0
2016-Aug-07 09:32N 39°59' E 119°50'0 0.0
2016-Aug-07 06:04N 39°59' E 119°50'3 1.9
2016-Aug-07 04:33N 39°56' E 119°49'2 2.2
2016-Aug-07 03:29N 39°55' E 119°51'0 0.0
2016-Aug-07 02:29N 39°55' E 119°51'0 0.0
2016-Aug-07 01:29N 39°55' E 119°51'0 0.0
2016-Aug-07 00:29N 39°55' E 119°51'0 0.0
2016-Aug-06 23:29N 39°55' E 119°51'0 0.0
2016-Aug-06 22:29N 39°55' E 119°51'0 0.0
2016-Aug-06 21:29N 39°55' E 119°51'0 0.0
2016-Aug-06 20:33N 39°55' E 119°51'0 0.2
2016-Aug-06 19:33N 39°55' E 119°51'0 0.1
2016-Aug-06 18:33N 39°55' E 119°51'0 0.0
2016-Aug-06 17:33N 39°55' E 119°51'0 0.2
2016-Aug-06 16:33N 39°55' E 119°51'0 0.1
2016-Aug-06 15:33N 39°55' E 119°51'0 0.0
2016-Aug-06 14:33N 39°55' E 119°51'0 0.1
2016-Aug-06 13:33N 39°55' E 119°51'4 3.6
2016-Aug-06 12:33N 39°51' E 119°53'1412.8
2016-Aug-06 11:30N 39°38' E 119°56'  

Dump ship's entire track history